sensor_id;sensor_type;location;lat;lon;timestamp;pressure;altitude;pressure_sealevel;temperature;humidity
16738;BME280;17906;47.684;10.806;2022-07-03T00:02:15;93613.19;;;11.23;89.46
16738;BME280;17906;47.684;10.806;2022-07-03T00:04:42;93613.25;;;11.12;89.67
16738;BME280;17906;47.684;10.806;2022-07-03T00:07:09;93613.53;;;10.98;91.02
16738;BME280;17906;47.684;10.806;2022-07-03T00:09:37;93607.53;;;10.96;91.73
16738;BME280;17906;47.684;10.806;2022-07-03T00:12:04;93616.31;;;11.03;91.66
16738;BME280;17906;47.684;10.806;2022-07-03T00:14:31;93608.09;;;10.98;91.76
16738;BME280;17906;47.684;10.806;2022-07-03T00:16:58;93609.16;;;10.97;92.14
16738;BME280;17906;47.684;10.806;2022-07-03T00:19:25;93611.72;;;11.04;91.08
16738;BME280;17906;47.684;10.806;2022-07-03T00:21:53;93607.22;;;11.10;89.97
16738;BME280;17906;47.684;10.806;2022-07-03T00:24:25;93614.22;;;11.06;90.38
16738;BME280;17906;47.684;10.806;2022-07-03T00:26:53;93623.50;;;11.10;90.14
16738;BME280;17906;47.684;10.806;2022-07-03T00:29:21;93619.00;;;11.15;89.90
16738;BME280;17906;47.684;10.806;2022-07-03T00:31:48;93616.53;;;11.14;89.93
16738;BME280;17906;47.684;10.806;2022-07-03T00:34:17;93615.19;;;10.99;89.62
16738;BME280;17906;47.684;10.806;2022-07-03T00:36:45;93615.44;;;10.86;90.31
16738;BME280;17906;47.684;10.806;2022-07-03T00:39:12;93611.31;;;10.95;90.55
16738;BME280;17906;47.684;10.806;2022-07-03T00:41:41;93622.81;;;11.02;90.09
16738;BME280;17906;47.684;10.806;2022-07-03T00:44:09;93612.94;;;10.96;89.68
16738;BME280;17906;47.684;10.806;2022-07-03T00:46:37;93610.81;;;10.98;89.84
16738;BME280;17906;47.684;10.806;2022-07-03T00:49:06;93614.03;;;10.95;90.89
16738;BME280;17906;47.684;10.806;2022-07-03T00:51:34;93625.56;;;10.91;90.95
16738;BME280;17906;47.684;10.806;2022-07-03T00:54:03;93613.19;;;10.83;91.09
16738;BME280;17906;47.684;10.806;2022-07-03T00:56:30;93619.91;;;10.92;91.48
16738;BME280;17906;47.684;10.806;2022-07-03T00:59:00;93623.22;;;10.94;91.30
16738;BME280;17906;47.684;10.806;2022-07-03T01:01:30;93606.94;;;10.94;90.64
16738;BME280;17906;47.684;10.806;2022-07-03T01:04:05;93613.03;;;11.01;90.44
16738;BME280;17906;47.684;10.806;2022-07-03T01:06:40;93615.50;;;11.03;90.01
16738;BME280;17906;47.684;10.806;2022-07-03T01:09:09;93605.38;;;10.98;90.42
16738;BME280;17906;47.684;10.806;2022-07-03T01:11:38;93603.16;;;10.95;89.84
16738;BME280;17906;47.684;10.806;2022-07-03T01:14:15;93606.94;;;10.94;90.25
16738;BME280;17906;47.684;10.806;2022-07-03T01:16:51;93606.72;;;10.96;89.60
16738;BME280;17906;47.684;10.806;2022-07-03T01:19:38;93606.72;;;10.96;89.92
16738;BME280;17906;47.684;10.806;2022-07-03T01:22:26;93602.19;;;11.01;89.61
16738;BME280;17906;47.684;10.806;2022-07-03T01:27:57;93598.56;;;10.96;90.11
16738;BME280;17906;47.684;10.806;2022-07-03T01:30:26;93607.66;;;10.90;90.45
16738;BME280;17906;47.684;10.806;2022-07-03T01:32:57;93606.09;;;10.82;90.99
16738;BME280;17906;47.684;10.806;2022-07-03T01:35:28;93614.84;;;10.84;90.14
16738;BME280;17906;47.684;10.806;2022-07-03T01:37:55;93605.81;;;10.67;91.47
16738;BME280;17906;47.684;10.806;2022-07-03T01:40:23;93607.94;;;10.65;90.71
16738;BME280;17906;47.684;10.806;2022-07-03T01:42:56;93606.31;;;10.64;90.70
16738;BME280;17906;47.684;10.806;2022-07-03T01:45:23;93612.34;;;10.54;90.37
16738;BME280;17906;47.684;10.806;2022-07-03T01:47:51;93606.53;;;10.51;91.29
16738;BME280;17906;47.684;10.806;2022-07-03T01:50:19;93607.19;;;10.41;91.34
16738;BME280;17906;47.684;10.806;2022-07-03T01:52:48;93606.59;;;10.27;92.14
16738;BME280;17906;47.684;10.806;2022-07-03T01:55:15;93605.75;;;10.27;90.86
16738;BME280;17906;47.684;10.806;2022-07-03T01:57:43;93603.28;;;10.37;91.56
16738;BME280;17906;47.684;10.806;2022-07-03T02:00:14;93602.59;;;10.30;92.20
16738;BME280;17906;47.684;10.806;2022-07-03T02:02:45;93602.59;;;10.41;90.90
16738;BME280;17906;47.684;10.806;2022-07-03T02:05:22;93605.53;;;10.40;89.65
16738;BME280;17906;47.684;10.806;2022-07-03T02:07:56;93600.69;;;10.42;89.75
16738;BME280;17906;47.684;10.806;2022-07-03T02:10:29;93604.69;;;10.39;90.52
16738;BME280;17906;47.684;10.806;2022-07-03T02:13:00;93599.16;;;10.34;89.11
16738;BME280;17906;47.684;10.806;2022-07-03T02:15:31;93610.50;;;10.20;89.50
16738;BME280;17906;47.684;10.806;2022-07-03T02:18:02;93615.69;;;9.98;91.77
16738;BME280;17906;47.684;10.806;2022-07-03T02:20:35;93610.63;;;10.01;91.91
16738;BME280;17906;47.684;10.806;2022-07-03T02:23:05;93614.03;;;10.08;90.33
16738;BME280;17906;47.684;10.806;2022-07-03T02:25:35;93611.09;;;10.10;89.57
16738;BME280;17906;47.684;10.806;2022-07-03T02:28:04;93616.38;;;10.05;90.18
16738;BME280;17906;47.684;10.806;2022-07-03T02:30:35;93617.56;;;9.97;90.98
16738;BME280;17906;47.684;10.806;2022-07-03T02:33:04;93613.81;;;9.98;89.89
16738;BME280;17906;47.684;10.806;2022-07-03T02:35:33;93621.69;;;10.00;89.31
16738;BME280;17906;47.684;10.806;2022-07-03T02:38:04;93623.91;;;10.03;89.65
16738;BME280;17906;47.684;10.806;2022-07-03T02:40:43;93626.88;;;10.01;89.01
16738;BME280;17906;47.684;10.806;2022-07-03T02:43:15;93627.09;;;10.00;88.77
16738;BME280;17906;47.684;10.806;2022-07-03T02:45:49;93635.22;;;9.88;90.03
16738;BME280;17906;47.684;10.806;2022-07-03T02:48:39;93635.91;;;9.95;89.55
16738;BME280;17906;47.684;10.806;2022-07-03T02:51:10;93640.41;;;9.89;90.09
16738;BME280;17906;47.684;10.806;2022-07-03T02:53:44;93640.50;;;9.83;90.43
16738;BME280;17906;47.684;10.806;2022-07-03T02:56:21;93632.38;;;9.71;90.40
16738;BME280;17906;47.684;10.806;2022-07-03T02:58:58;93634.50;;;9.81;89.77
16738;BME280;17906;47.684;10.806;2022-07-03T03:01:38;93643.44;;;9.70;89.00
16738;BME280;17906;47.684;10.806;2022-07-03T03:04:09;93647.06;;;9.64;89.68
16738;BME280;17906;47.684;10.806;2022-07-03T03:06:41;93641.44;;;9.65;90.53
16738;BME280;17906;47.684;10.806;2022-07-03T03:09:11;93638.25;;;9.68;90.51
16738;BME280;17906;47.684;10.806;2022-07-03T03:11:41;93644.50;;;9.69;89.06
16738;BME280;17906;47.684;10.806;2022-07-03T03:14:11;93647.06;;;9.64;89.21
16738;BME280;17906;47.684;10.806;2022-07-03T03:16:46;93654.56;;;9.50;90.76
16738;BME280;17906;47.684;10.806;2022-07-03T03:19:13;93650.50;;;9.41;90.94
16738;BME280;17906;47.684;10.806;2022-07-03T03:21:49;93658.78;;;9.46;91.30
16738;BME280;17906;47.684;10.806;2022-07-03T03:24:18;93662.78;;;9.43;90.95
16738;BME280;17906;47.684;10.806;2022-07-03T03:26:45;93660.88;;;9.44;90.94
16738;BME280;17906;47.684;10.806;2022-07-03T03:29:12;93659.09;;;9.38;91.16
16738;BME280;17906;47.684;10.806;2022-07-03T03:31:40;93662.28;;;9.35;91.19
16738;BME280;17906;47.684;10.806;2022-07-03T03:34:07;93661.44;;;9.34;91.15
16738;BME280;17906;47.684;10.806;2022-07-03T03:36:34;93669.41;;;9.29;91.30
16738;BME280;17906;47.684;10.806;2022-07-03T03:39:00;93668.31;;;9.18;92.35
16738;BME280;17906;47.684;10.806;2022-07-03T03:41:27;93673.66;;;9.25;92.00
16738;BME280;17906;47.684;10.806;2022-07-03T03:43:53;93670.84;;;9.31;91.58
16738;BME280;17906;47.684;10.806;2022-07-03T03:46:20;93677.91;;;9.32;90.78
16738;BME280;17906;47.684;10.806;2022-07-03T03:48:48;93670.22;;;9.29;91.95
16738;BME280;17906;47.684;10.806;2022-07-03T03:51:14;93671.81;;;9.37;91.38
16738;BME280;17906;47.684;10.806;2022-07-03T03:53:41;93673.75;;;9.30;91.89
16738;BME280;17906;47.684;10.806;2022-07-03T03:56:11;93669.91;;;9.38;91.90
16738;BME280;17906;47.684;10.806;2022-07-03T03:58:41;93672.16;;;9.41;91.66
16738;BME280;17906;47.684;10.806;2022-07-03T04:01:09;93664.41;;;9.44;91.29
16738;BME280;17906;47.684;10.806;2022-07-03T04:03:37;93669.84;;;9.44;90.01
16738;BME280;17906;47.684;10.806;2022-07-03T04:06:05;93662.50;;;9.33;91.13
16738;BME280;17906;47.684;10.806;2022-07-03T04:08:32;93669.75;;;9.21;91.40
16738;BME280;17906;47.684;10.806;2022-07-03T04:10:58;93670.22;;;9.29;91.57
16738;BME280;17906;47.684;10.806;2022-07-03T04:13:25;93666.22;;;9.50;91.55
16738;BME280;17906;47.684;10.806;2022-07-03T04:15:53;93669.84;;;9.44;91.48
16738;BME280;17906;47.684;10.806;2022-07-03T04:18:19;93672.47;;;9.51;92.11
16738;BME280;17906;47.684;10.806;2022-07-03T04:20:46;93674.72;;;9.54;92.10
16738;BME280;17906;47.684;10.806;2022-07-03T04:23:14;93671.78;;;9.55;91.91
16738;BME280;17906;47.684;10.806;2022-07-03T04:25:41;93681.41;;;9.51;93.24
16738;BME280;17906;47.684;10.806;2022-07-03T04:28:08;93685.97;;;9.51;94.10
16738;BME280;17906;47.684;10.806;2022-07-03T04:30:34;93673.44;;;9.56;94.27
16738;BME280;17906;47.684;10.806;2022-07-03T04:33:01;93682.03;;;9.65;93.79
16738;BME280;17906;47.684;10.806;2022-07-03T04:35:27;93674.19;;;9.75;94.76
16738;BME280;17906;47.684;10.806;2022-07-03T04:37:54;93682.31;;;9.87;94.05
16738;BME280;17906;47.684;10.806;2022-07-03T04:40:22;93685.72;;;9.94;94.04
16738;BME280;17906;47.684;10.806;2022-07-03T04:42:49;93681.28;;;10.00;93.63
16738;BME280;17906;47.684;10.806;2022-07-03T04:45:15;93680.31;;;10.06;94.01
16738;BME280;17906;47.684;10.806;2022-07-03T04:47:42;93691.06;;;10.12;95.06
16738;BME280;17906;47.684;10.806;2022-07-03T04:50:08;93687.78;;;10.22;95.90
16738;BME280;17906;47.684;10.806;2022-07-03T04:52:35;93684.00;;;10.35;96.34
16738;BME280;17906;47.684;10.806;2022-07-03T04:55:02;93683.75;;;10.48;96.46
16738;BME280;17906;47.684;10.806;2022-07-03T04:57:30;93686.94;;;10.57;98.27
16738;BME280;17906;47.684;10.806;2022-07-03T04:59:56;93691.41;;;10.63;99.07
16738;BME280;17906;47.684;10.806;2022-07-03T05:02:23;93681.81;;;10.72;100.00
16738;BME280;17906;47.684;10.806;2022-07-03T05:04:49;93678.88;;;10.85;100.00
16738;BME280;17906;47.684;10.806;2022-07-03T05:07:16;93678.06;;;10.96;100.00
16738;BME280;17906;47.684;10.806;2022-07-03T05:09:42;93683.19;;;11.10;100.00
16738;BME280;17906;47.684;10.806;2022-07-03T05:12:09;93680.44;;;11.21;100.00
16738;BME280;17906;47.684;10.806;2022-07-03T05:14:37;93682.63;;;11.36;100.00
16738;BME280;17906;47.684;10.806;2022-07-03T05:17:04;93685.91;;;11.50;100.00
16738;BME280;17906;47.684;10.806;2022-07-03T05:19:30;93687.72;;;11.61;100.00
16738;BME280;17906;47.684;10.806;2022-07-03T05:21:57;93683.88;;;11.74;100.00
16738;BME280;17906;47.684;10.806;2022-07-03T05:24:23;93687.69;;;11.89;99.79
16738;BME280;17906;47.684;10.806;2022-07-03T05:26:50;93685.22;;;12.05;99.18
16738;BME280;17906;47.684;10.806;2022-07-03T05:29:16;93680.88;;;12.20;99.31
16738;BME280;17906;47.684;10.806;2022-07-03T05:31:44;93681.63;;;12.33;98.58
16738;BME280;17906;47.684;10.806;2022-07-03T05:34:12;93691.47;;;12.56;98.29
16738;BME280;17906;47.684;10.806;2022-07-03T05:36:38;93693.88;;;12.69;98.00
16738;BME280;17906;47.684;10.806;2022-07-03T05:39:05;93672.63;;;12.88;97.75
16738;BME280;17906;47.684;10.806;2022-07-03T05:41:49;93678.91;;;13.10;98.17
16738;BME280;17906;47.684;10.806;2022-07-03T05:44:15;93681.66;;;13.32;98.10
16738;BME280;17906;47.684;10.806;2022-07-03T05:46:42;93675.88;;;13.50;98.10
16738;BME280;17906;47.684;10.806;2022-07-03T05:49:10;93683.44;;;13.70;98.00
16738;BME280;17906;47.684;10.806;2022-07-03T05:51:36;93680.56;;;13.82;98.18
16738;BME280;17906;47.684;10.806;2022-07-03T05:54:03;93676.06;;;13.98;98.17
16738;BME280;17906;47.684;10.806;2022-07-03T05:56:30;93684.69;;;14.16;98.53
16738;BME280;17906;47.684;10.806;2022-07-03T05:58:57;93681.31;;;14.36;97.35
16738;BME280;17906;47.684;10.806;2022-07-03T06:01:23;93683.16;;;14.58;96.21
16738;BME280;17906;47.684;10.806;2022-07-03T06:03:50;93687.09;;;14.77;94.52
16738;BME280;17906;47.684;10.806;2022-07-03T06:06:18;93679.03;;;14.97;92.41
16738;BME280;17906;47.684;10.806;2022-07-03T06:08:44;93674.78;;;15.22;90.16
16738;BME280;17906;47.684;10.806;2022-07-03T06:11:11;93689.38;;;15.43;88.49
16738;BME280;17906;47.684;10.806;2022-07-03T06:13:38;93677.41;;;15.59;88.08
16738;BME280;17906;47.684;10.806;2022-07-03T06:16:04;93676.66;;;15.79;87.12
16738;BME280;17906;47.684;10.806;2022-07-03T06:18:31;93677.75;;;15.93;83.70
16738;BME280;17906;47.684;10.806;2022-07-03T06:20:58;93691.47;;;16.13;84.89
16738;BME280;17906;47.684;10.806;2022-07-03T06:23:25;93681.41;;;16.34;84.30
16738;BME280;17906;47.684;10.806;2022-07-03T06:25:52;93681.69;;;16.48;84.35
16738;BME280;17906;47.684;10.806;2022-07-03T06:28:19;93690.44;;;16.70;83.75
16738;BME280;17906;47.684;10.806;2022-07-03T06:30:45;93685.47;;;16.88;82.75
16738;BME280;17906;47.684;10.806;2022-07-03T06:33:12;93683.53;;;17.03;80.30
16738;BME280;17906;47.684;10.806;2022-07-03T06:35:38;93682.69;;;17.13;79.72
16738;BME280;17906;47.684;10.806;2022-07-03T06:38:05;93680.22;;;17.27;79.56
16738;BME280;17906;47.684;10.806;2022-07-03T06:40:33;93686.44;;;17.48;79.41
16738;BME280;17906;47.684;10.806;2022-07-03T06:42:59;93680.88;;;17.68;77.37
16738;BME280;17906;47.684;10.806;2022-07-03T06:45:26;93682.47;;;17.79;77.57
16738;BME280;17906;47.684;10.806;2022-07-03T06:47:52;93675.19;;;18.04;74.03
16738;BME280;17906;47.684;10.806;2022-07-03T06:50:19;93674.59;;;18.17;74.63
16738;BME280;17906;47.684;10.806;2022-07-03T06:52:45;93675.84;;;18.35;75.62
16738;BME280;17906;47.684;10.806;2022-07-03T06:55:12;93670.75;;;18.52;72.26
16738;BME280;17906;47.684;10.806;2022-07-03T06:57:40;93675.41;;;18.86;72.14
16738;BME280;17906;47.684;10.806;2022-07-03T07:00:08;93681.63;;;19.01;71.44
16738;BME280;17906;47.684;10.806;2022-07-03T07:02:35;93675.66;;;19.18;68.52
16738;BME280;17906;47.684;10.806;2022-07-03T07:05:03;93686.38;;;19.20;69.22
16738;BME280;17906;47.684;10.806;2022-07-03T07:07:30;93681.16;;;19.18;68.27
16738;BME280;17906;47.684;10.806;2022-07-03T07:09:57;93685.00;;;19.17;69.08
16738;BME280;17906;47.684;10.806;2022-07-03T07:12:23;93686.72;;;19.37;69.15
16738;BME280;17906;47.684;10.806;2022-07-03T07:14:52;93681.59;;;19.54;67.60
16738;BME280;17906;47.684;10.806;2022-07-03T07:17:18;93674.72;;;19.76;67.04
16738;BME280;17906;47.684;10.806;2022-07-03T07:19:45;93684.59;;;20.01;65.39
16738;BME280;17906;47.684;10.806;2022-07-03T07:22:11;93684.78;;;20.28;67.02
16738;BME280;17906;47.684;10.806;2022-07-03T07:24:38;93682.91;;;20.42;63.91
16738;BME280;17906;47.684;10.806;2022-07-03T07:27:04;93680.59;;;20.49;60.72
16738;BME280;17906;47.684;10.806;2022-07-03T07:29:31;93688.56;;;20.51;62.59
16738;BME280;17906;47.684;10.806;2022-07-03T07:31:59;93688.00;;;20.49;62.10
16738;BME280;17906;47.684;10.806;2022-07-03T07:34:25;93692.03;;;20.38;61.24
16738;BME280;17906;47.684;10.806;2022-07-03T07:36:52;93697.53;;;20.38;64.95
16738;BME280;17906;47.684;10.806;2022-07-03T07:39:19;93689.16;;;20.29;66.35
16738;BME280;17906;47.684;10.806;2022-07-03T07:41:45;93693.03;;;20.28;64.63
16738;BME280;17906;47.684;10.806;2022-07-03T07:44:12;93689.69;;;20.31;61.89
16738;BME280;17906;47.684;10.806;2022-07-03T07:46:38;93693.84;;;20.29;59.13
16738;BME280;17906;47.684;10.806;2022-07-03T07:49:06;93697.28;;;20.39;59.20
16738;BME280;17906;47.684;10.806;2022-07-03T07:51:33;93688.72;;;20.41;64.14
16738;BME280;17906;47.684;10.806;2022-07-03T07:54:00;93695.13;;;20.55;64.34
16738;BME280;17906;47.684;10.806;2022-07-03T07:56:26;93699.72;;;20.60;63.54
16738;BME280;17906;47.684;10.806;2022-07-03T07:58:53;93693.84;;;20.99;58.33
16738;BME280;17906;47.684;10.806;2022-07-03T08:01:19;93688.75;;;21.38;58.62
16738;BME280;17906;47.684;10.806;2022-07-03T08:04:04;93683.84;;;21.90;54.74
16738;BME280;17906;47.684;10.806;2022-07-03T08:06:50;93676.88;;;22.34;54.44
16738;BME280;17906;47.684;10.806;2022-07-03T08:09:16;93690.63;;;22.84;52.48
16738;BME280;17906;47.684;10.806;2022-07-03T08:11:43;93676.69;;;23.20;49.96
16738;BME280;17906;47.684;10.806;2022-07-03T08:14:09;93674.13;;;23.46;48.02
16738;BME280;17906;47.684;10.806;2022-07-03T08:16:37;93673.94;;;23.82;47.49
16738;BME280;17906;47.684;10.806;2022-07-03T08:19:06;93675.47;;;24.06;44.90
16738;BME280;17906;47.684;10.806;2022-07-03T08:21:32;93674.22;;;24.12;45.31
16738;BME280;17906;47.684;10.806;2022-07-03T08:24:00;93669.53;;;24.47;46.29
16738;BME280;17906;47.684;10.806;2022-07-03T08:26:27;93678.22;;;24.89;45.50
16738;BME280;17906;47.684;10.806;2022-07-03T08:28:53;93683.59;;;25.02;43.52
16738;BME280;17906;47.684;10.806;2022-07-03T08:31:20;93683.09;;;25.18;43.02
16738;BME280;17906;47.684;10.806;2022-07-03T08:33:46;93676.28;;;25.06;43.21
16738;BME280;17906;47.684;10.806;2022-07-03T08:36:13;93680.63;;;25.16;41.69
16738;BME280;17906;47.684;10.806;2022-07-03T08:38:40;93678.91;;;25.67;40.04
16738;BME280;17906;47.684;10.806;2022-07-03T08:41:08;93672.16;;;25.77;39.38
16738;BME280;17906;47.684;10.806;2022-07-03T08:43:36;93675.09;;;25.80;37.36
16738;BME280;17906;47.684;10.806;2022-07-03T08:46:04;93673.06;;;26.07;40.50
16738;BME280;17906;47.684;10.806;2022-07-03T08:48:32;93675.84;;;26.07;41.05
16738;BME280;17906;47.684;10.806;2022-07-03T08:51:01;93666.25;;;26.25;40.01
16738;BME280;17906;47.684;10.806;2022-07-03T08:53:28;93661.44;;;26.34;37.51
16738;BME280;17906;47.684;10.806;2022-07-03T08:55:55;93669.94;;;26.38;37.31
16738;BME280;17906;47.684;10.806;2022-07-03T08:58:23;93663.34;;;26.72;36.04
16738;BME280;17906;47.684;10.806;2022-07-03T09:00:49;93661.59;;;27.21;35.27
16738;BME280;17906;47.684;10.806;2022-07-03T09:03:16;93660.16;;;27.15;36.19
16738;BME280;17906;47.684;10.806;2022-07-03T09:05:43;93657.47;;;27.06;37.13
16738;BME280;17906;47.684;10.806;2022-07-03T09:08:10;93661.69;;;26.92;37.42
16738;BME280;17906;47.684;10.806;2022-07-03T09:10:37;93654.75;;;26.98;33.78
16738;BME280;17906;47.684;10.806;2022-07-03T09:13:04;93655.72;;;26.81;32.70
16738;BME280;17906;47.684;10.806;2022-07-03T09:15:32;93652.81;;;27.10;36.08
16738;BME280;17906;47.684;10.806;2022-07-03T09:17:59;93654.38;;;27.53;35.82
16738;BME280;17906;47.684;10.806;2022-07-03T09:20:31;93651.38;;;27.58;34.89
16738;BME280;17906;47.684;10.806;2022-07-03T09:23:11;93648.13;;;27.56;31.82
16738;BME280;17906;47.684;10.806;2022-07-03T09:25:55;93647.44;;;27.59;35.32
16738;BME280;17906;47.684;10.806;2022-07-03T09:28:22;93643.16;;;27.74;32.72
16738;BME280;17906;47.684;10.806;2022-07-03T09:30:58;93640.19;;;27.91;32.71
16738;BME280;17906;47.684;10.806;2022-07-03T09:33:26;93644.66;;;27.59;31.61
16738;BME280;17906;47.684;10.806;2022-07-03T09:35:53;93645.66;;;27.55;30.38
16738;BME280;17906;47.684;10.806;2022-07-03T09:38:21;93645.06;;;27.82;33.19
16738;BME280;17906;47.684;10.806;2022-07-03T09:40:50;93643.78;;;27.34;33.56
16738;BME280;17906;47.684;10.806;2022-07-03T09:43:22;93633.66;;;27.87;32.75
16738;BME280;17906;47.684;10.806;2022-07-03T09:45:50;93631.59;;;28.21;30.02
16738;BME280;17906;47.684;10.806;2022-07-03T09:48:22;93634.84;;;28.47;33.07
16738;BME280;17906;47.684;10.806;2022-07-03T09:50:49;93634.22;;;28.66;29.48
16738;BME280;17906;47.684;10.806;2022-07-03T09:53:52;93631.63;;;28.85;28.69
16738;BME280;17906;47.684;10.806;2022-07-03T09:56:20;93628.44;;;28.47;29.74
16738;BME280;17906;47.684;10.806;2022-07-03T09:59:07;93631.03;;;28.80;29.57
16738;BME280;17906;47.684;10.806;2022-07-03T10:01:35;93636.34;;;28.57;27.38
16738;BME280;17906;47.684;10.806;2022-07-03T10:04:11;93630.69;;;28.81;28.46
16738;BME280;17906;47.684;10.806;2022-07-03T10:06:52;93627.50;;;28.95;29.56
16738;BME280;17906;47.684;10.806;2022-07-03T10:09:21;93632.06;;;28.88;29.08
16738;BME280;17906;47.684;10.806;2022-07-03T10:11:49;93625.56;;;28.83;31.80
16738;BME280;17906;47.684;10.806;2022-07-03T10:14:16;93628.56;;;28.26;28.28
16738;BME280;17906;47.684;10.806;2022-07-03T10:16:43;93621.97;;;28.43;28.16
16738;BME280;17906;47.684;10.806;2022-07-03T10:19:14;93615.56;;;28.42;27.36
16738;BME280;17906;47.684;10.806;2022-07-03T10:21:49;93621.44;;;28.65;28.50
16738;BME280;17906;47.684;10.806;2022-07-03T10:24:17;93620.50;;;28.61;31.44
16738;BME280;17906;47.684;10.806;2022-07-03T10:26:44;93619.50;;;28.41;27.31
16738;BME280;17906;47.684;10.806;2022-07-03T10:29:10;93607.84;;;28.64;29.77
16738;BME280;17906;47.684;10.806;2022-07-03T10:31:42;93610.78;;;28.55;30.23
16738;BME280;17906;47.684;10.806;2022-07-03T10:34:10;93603.31;;;28.59;27.97
16738;BME280;17906;47.684;10.806;2022-07-03T10:36:40;93603.56;;;28.42;26.37
16738;BME280;17906;47.684;10.806;2022-07-03T10:39:06;93605.53;;;28.53;27.76
16738;BME280;17906;47.684;10.806;2022-07-03T10:41:41;93599.78;;;28.34;27.24
16738;BME280;17906;47.684;10.806;2022-07-03T10:44:27;93614.41;;;28.43;27.80
16738;BME280;17906;47.684;10.806;2022-07-03T10:47:36;93601.00;;;28.49;28.06
16738;BME280;17906;47.684;10.806;2022-07-03T10:50:07;93600.59;;;28.75;28.22
16738;BME280;17906;47.684;10.806;2022-07-03T10:52:36;93602.69;;;28.78;28.72
16738;BME280;17906;47.684;10.806;2022-07-03T10:55:03;93599.81;;;28.62;27.71
16738;BME280;17906;47.684;10.806;2022-07-03T10:57:32;93598.34;;;28.93;30.00
16738;BME280;17906;47.684;10.806;2022-07-03T11:00:00;93588.56;;;28.86;25.81
16738;BME280;17906;47.684;10.806;2022-07-03T11:02:33;93598.84;;;29.10;28.06
16738;BME280;17906;47.684;10.806;2022-07-03T11:05:07;93598.63;;;28.63;27.01
16738;BME280;17906;47.684;10.806;2022-07-03T11:07:38;93593.94;;;28.79;26.98
16738;BME280;17906;47.684;10.806;2022-07-03T11:10:30;93589.44;;;28.63;26.18
16738;BME280;17906;47.684;10.806;2022-07-03T11:12:58;93593.34;;;28.46;25.69
16738;BME280;17906;47.684;10.806;2022-07-03T11:15:26;93591.25;;;28.55;28.09
16738;BME280;17906;47.684;10.806;2022-07-03T11:18:26;93584.16;;;28.45;30.36
16738;BME280;17906;47.684;10.806;2022-07-03T11:21:26;93580.78;;;28.92;30.49
16738;BME280;17906;47.684;10.806;2022-07-03T11:27:23;93585.50;;;29.04;30.53
16738;BME280;17906;47.684;10.806;2022-07-03T11:29:53;93574.03;;;28.81;26.95
16738;BME280;17906;47.684;10.806;2022-07-03T11:32:45;93578.06;;;28.96;27.46
16738;BME280;17906;47.684;10.806;2022-07-03T11:35:42;93577.59;;;28.66;27.69
16738;BME280;17906;47.684;10.806;2022-07-03T11:38:10;93569.53;;;28.36;33.02
16738;BME280;17906;47.684;10.806;2022-07-03T11:40:40;93570.97;;;27.81;32.00
16738;BME280;17906;47.684;10.806;2022-07-03T11:43:07;93573.50;;;27.50;31.82
16738;BME280;17906;47.684;10.806;2022-07-03T11:45:34;93572.31;;;27.26;30.21
16738;BME280;17906;47.684;10.806;2022-07-03T11:48:06;93579.38;;;27.24;30.01
16738;BME280;17906;47.684;10.806;2022-07-03T11:50:36;93573.25;;;27.42;35.69
16738;BME280;17906;47.684;10.806;2022-07-03T11:53:18;93573.25;;;27.42;33.50
16738;BME280;17906;47.684;10.806;2022-07-03T11:55:48;93568.34;;;27.27;32.60
16738;BME280;17906;47.684;10.806;2022-07-03T11:58:15;93574.50;;;27.00;34.92
16738;BME280;17906;47.684;10.806;2022-07-03T12:00:41;93570.13;;;27.11;37.62
16738;BME280;17906;47.684;10.806;2022-07-03T12:03:09;93563.81;;;26.90;35.57
16738;BME280;17906;47.684;10.806;2022-07-03T12:05:35;93574.22;;;26.80;31.90
16738;BME280;17906;47.684;10.806;2022-07-03T12:08:03;93564.75;;;26.94;32.97
16738;BME280;17906;47.684;10.806;2022-07-03T12:10:37;93570.91;;;26.99;33.23
16738;BME280;17906;47.684;10.806;2022-07-03T12:13:18;93570.78;;;27.29;31.21
16738;BME280;17906;47.684;10.806;2022-07-03T12:15:45;93566.91;;;27.66;32.80
16738;BME280;17906;47.684;10.806;2022-07-03T12:18:11;93564.13;;;27.66;31.79
16738;BME280;17906;47.684;10.806;2022-07-03T12:20:38;93569.91;;;27.61;35.82
16738;BME280;17906;47.684;10.806;2022-07-03T12:23:05;93563.84;;;27.23;35.50
16738;BME280;17906;47.684;10.806;2022-07-03T12:25:31;93561.78;;;27.11;31.32
16738;BME280;17906;47.684;10.806;2022-07-03T12:27:58;93565.34;;;27.32;31.84
16738;BME280;17906;47.684;10.806;2022-07-03T12:30:26;93560.63;;;27.57;31.08
16738;BME280;17906;47.684;10.806;2022-07-03T12:32:53;93554.34;;;27.48;30.77
16738;BME280;17906;47.684;10.806;2022-07-03T12:35:20;93551.56;;;27.60;31.65
16738;BME280;17906;47.684;10.806;2022-07-03T12:37:47;93555.97;;;27.37;29.45
16738;BME280;17906;47.684;10.806;2022-07-03T12:40:14;93550.38;;;27.37;30.39
16738;BME280;17906;47.684;10.806;2022-07-03T12:42:45;93551.66;;;27.27;29.06
16738;BME280;17906;47.684;10.806;2022-07-03T12:45:13;93547.16;;;27.71;28.85
16738;BME280;17906;47.684;10.806;2022-07-03T12:47:41;93540.16;;;27.53;29.37
16738;BME280;17906;47.684;10.806;2022-07-03T12:50:08;93542.25;;;27.32;29.68
16738;BME280;17906;47.684;10.806;2022-07-03T12:52:49;93532.41;;;27.34;30.13
16738;BME280;17906;47.684;10.806;2022-07-03T12:55:22;93529.03;;;27.53;34.29
16738;BME280;17906;47.684;10.806;2022-07-03T12:57:49;93532.31;;;27.55;32.89
16738;BME280;17906;47.684;10.806;2022-07-03T13:00:42;93520.69;;;27.41;30.68
16738;BME280;17906;47.684;10.806;2022-07-03T13:03:25;93530.78;;;27.58;30.78
16738;BME280;17906;47.684;10.806;2022-07-03T13:05:52;93520.91;;;27.48;32.98
16738;BME280;17906;47.684;10.806;2022-07-03T13:08:19;93520.09;;;27.60;32.34
16738;BME280;17906;47.684;10.806;2022-07-03T13:10:54;93516.41;;;27.56;36.51